createdAt,value
2023-04-22T00:03:10.287Z,100.00
2023-04-22T00:08:15.802Z,100.00
2023-04-22T00:13:19.693Z,100.00
2023-04-22T00:18:23.644Z,100.00
2023-04-22T00:23:29.033Z,100.00
2023-04-22T00:28:33.056Z,100.00
2023-04-22T00:33:37.410Z,100.00
2023-04-22T00:38:47.711Z,100.00
2023-04-22T00:43:53.630Z,100.00
2023-04-22T00:48:58.610Z,100.00
2023-04-22T00:54:04.803Z,100.00
2023-04-22T00:59:10.887Z,100.00
2023-04-22T01:04:15.566Z,100.00
2023-04-22T01:09:22.853Z,100.00
2023-04-22T01:14:26.897Z,100.00
2023-04-22T01:19:30.970Z,100.00
2023-04-22T01:24:36.782Z,100.00
2023-04-22T01:29:41.055Z,100.00
2023-04-22T01:34:45.348Z,100.00
2023-04-22T01:39:51.603Z,100.00
2023-04-22T01:44:55.763Z,100.00
2023-04-22T01:49:59.987Z,100.00
2023-04-22T01:55:05.918Z,100.00
2023-04-22T02:00:11.335Z,100.00
2023-04-22T02:05:22.311Z,100.00
2023-04-22T02:15:57.256Z,100.00
2023-04-22T02:21:01.249Z,100.00
2023-04-22T02:26:07.153Z,100.00
2023-04-22T02:31:12.553Z,100.00
2023-04-22T02:36:17.827Z,100.00
2023-04-22T02:41:24.214Z,100.00
2023-04-22T02:46:29.632Z,100.00
2023-04-22T02:51:41.691Z,100.00
2023-04-22T02:56:48.309Z,100.00
2023-04-22T03:01:52.260Z,100.00
2023-04-22T03:07:16.461Z,100.00
2023-04-22T03:12:21.863Z,100.00
2023-04-22T03:17:26.752Z,100.00
2023-04-22T03:22:31.193Z,100.00
2023-04-22T03:27:39.342Z,100.00
2023-04-22T03:32:43.352Z,100.00
2023-04-22T03:38:19.635Z,100.00
2023-04-22T03:43:28.811Z,100.00
2023-04-22T03:48:39.490Z,100.00
2023-04-22T03:53:48.816Z,100.00
2023-04-22T03:58:58.802Z,100.00
2023-04-22T04:04:03.826Z,100.00
2023-04-22T04:09:19.579Z,100.00
2023-04-22T04:14:25.471Z,100.00
2023-04-22T04:19:30.132Z,100.00
2023-04-22T04:24:36.651Z,100.00
2023-04-22T04:29:49.651Z,100.00
2023-04-22T04:35:03.230Z,100.00
2023-04-22T04:40:12.301Z,100.00
2023-04-22T04:45:37.822Z,100.00
2023-04-22T04:50:43.574Z,100.00
2023-04-22T04:55:49.733Z,100.00
2023-04-22T05:01:00.248Z,100.00
2023-04-22T05:06:05.338Z,100.00
2023-04-22T05:11:10.249Z,100.00
2023-04-22T05:16:16.163Z,100.00
2023-04-22T05:21:20.406Z,100.00
2023-04-22T05:26:24.675Z,100.00
2023-04-22T05:31:30.228Z,100.00
2023-04-22T05:36:35.014Z,100.00
2023-04-22T05:41:39.326Z,100.00
2023-04-22T05:46:48.149Z,100.00
2023-04-22T05:51:53.056Z,100.00
2023-04-22T05:57:00.989Z,100.00
2023-04-22T06:02:06.674Z,100.00
2023-04-22T06:07:10.832Z,100.00
2023-04-22T06:12:16.706Z,100.00
2023-04-22T06:17:22.152Z,100.00
2023-04-22T06:22:26.246Z,100.00
2023-04-22T06:27:30.227Z,100.00
2023-04-22T06:32:37.331Z,100.00
2023-04-22T06:37:41.799Z,100.00
2023-04-22T06:42:46.690Z,100.00
2023-04-22T06:48:15.114Z,100.00
2023-04-22T06:53:37.446Z,100.00
2023-04-22T06:58:41.439Z,100.00
2023-04-22T07:03:47.591Z,98.15
2023-04-22T07:08:52.452Z,100.00
2023-04-22T07:13:57.076Z,85.59
2023-04-22T07:19:02.442Z,100.00
2023-04-22T07:24:07.033Z,100.00
2023-04-22T07:29:11.452Z,100.00
2023-04-22T07:34:17.532Z,99.25
2023-04-22T07:39:21.587Z,100.00
2023-04-22T07:44:25.595Z,100.00
2023-04-22T07:49:30.860Z,100.00
2023-04-22T07:54:34.830Z,90.22
2023-04-22T07:59:38.924Z,74.10
2023-04-22T08:04:48.147Z,94.98
2023-04-22T08:17:17.255Z,89.75
2023-04-22T08:22:23.921Z,88.61
2023-04-22T08:27:28.039Z,99.73
2023-04-22T08:32:32.075Z,89.54
2023-04-22T08:37:37.590Z,86.18
2023-04-22T08:42:41.565Z,89.59
2023-04-22T08:47:45.859Z,95.02
2023-04-22T08:52:51.272Z,100.00
2023-04-22T08:57:55.916Z,100.00
2023-04-22T09:03:03.471Z,88.12
2023-04-22T09:08:09.662Z,73.47
2023-04-22T09:13:15.227Z,67.02
2023-04-22T09:18:19.652Z,73.62
2023-04-22T09:23:25.613Z,83.03
2023-04-22T09:28:29.662Z,86.57
2023-04-22T09:33:40.263Z,82.76
2023-04-22T09:38:55.490Z,81.80
2023-04-22T09:44:00.640Z,87.10
2023-04-22T09:49:04.595Z,81.51
2023-04-22T09:54:11.585Z,61.96
2023-04-22T09:59:20.636Z,60.07
2023-04-22T10:04:25.147Z,62.88
2023-04-22T10:09:30.815Z,76.62
2023-04-22T10:14:59.331Z,65.18
2023-04-22T10:20:07.897Z,46.86
2023-04-22T10:25:23.502Z,54.83
2023-04-22T10:30:32.310Z,55.65
2023-04-22T10:35:36.418Z,64.22
2023-04-22T10:41:00.096Z,58.32
2023-04-22T10:46:04.201Z,58.21
2023-04-22T10:51:40.873Z,53.56
2023-04-22T10:57:04.540Z,56.75
2023-04-22T11:02:12.758Z,60.87
2023-04-22T11:07:31.958Z,66.80
2023-04-22T11:12:46.828Z,70.26
2023-04-22T11:17:56.359Z,82.62
2023-04-22T11:23:00.521Z,82.77
2023-04-22T11:28:09.135Z,76.98
2023-04-22T11:33:18.647Z,64.22
2023-04-22T11:43:52.220Z,73.53
2023-04-22T11:48:56.184Z,82.00
2023-04-22T11:54:00.528Z,75.11
2023-04-22T11:59:08.753Z,68.55
2023-04-22T12:04:16.303Z,66.55
2023-04-22T12:09:20.309Z,57.57
2023-04-22T12:14:33.563Z,61.66
2023-04-22T12:19:39.030Z,61.16
2023-04-22T12:24:47.144Z,59.07
2023-04-22T12:29:56.912Z,68.09
2023-04-22T12:35:00.962Z,60.30
2023-04-22T12:40:07.136Z,66.03
2023-04-22T12:45:13.023Z,64.26
2023-04-22T12:50:17.004Z,62.33
2023-04-22T12:55:21.413Z,54.57
2023-04-22T13:00:27.159Z,55.76
2023-04-22T13:05:31.346Z,54.06
2023-04-22T13:10:35.515Z,51.99
2023-04-22T13:15:41.165Z,54.33
2023-04-22T13:20:45.145Z,54.31
2023-04-22T13:25:49.184Z,56.52
2023-04-22T13:30:55.258Z,55.98
2023-04-22T13:35:59.213Z,58.68
2023-04-22T13:41:06.355Z,56.46
2023-04-22T13:46:12.464Z,49.53
2023-04-22T13:51:20.102Z,54.07
2023-04-22T13:56:24.954Z,57.06
2023-04-22T14:01:30.492Z,61.76
2023-04-22T14:06:34.702Z,63.15
2023-04-22T14:11:38.666Z,66.90
2023-04-22T14:16:44.174Z,75.41
2023-04-22T14:21:48.393Z,70.99
2023-04-22T14:26:53.060Z,69.34
2023-04-22T14:31:58.626Z,69.28
2023-04-22T14:37:02.584Z,79.17
2023-04-22T14:42:06.870Z,91.36
2023-04-22T14:47:12.250Z,100.00
2023-04-22T14:52:16.278Z,100.00
2023-04-22T14:57:20.636Z,100.00
2023-04-22T15:02:26.120Z,100.00
2023-04-22T15:07:30.284Z,100.00
2023-04-22T15:12:34.316Z,100.00
2023-04-22T15:17:39.631Z,100.00
2023-04-22T15:22:45.055Z,100.00
2023-04-22T15:27:49.214Z,100.00
2023-04-22T15:32:54.537Z,100.00
2023-04-22T15:37:59.352Z,100.00
2023-04-22T15:43:03.569Z,100.00
2023-04-22T15:48:11.787Z,100.00
2023-04-22T15:53:15.956Z,100.00
2023-04-22T15:58:19.969Z,100.00
2023-04-22T16:03:25.564Z,100.00
2023-04-22T16:08:29.863Z,100.00
2023-04-22T16:13:33.911Z,100.00
2023-04-22T16:18:41.408Z,100.00
2023-04-22T16:23:46.831Z,100.00
2023-04-22T16:28:50.776Z,100.00
2023-04-22T16:33:59.560Z,100.00
2023-04-22T16:39:03.744Z,100.00
2023-04-22T16:44:07.722Z,100.00
2023-04-22T16:49:13.676Z,100.00
2023-04-22T16:54:17.843Z,100.00
2023-04-22T16:59:21.830Z,100.00
2023-04-22T17:04:27.479Z,100.00
2023-04-22T17:09:33.060Z,100.00
2023-04-22T17:14:37.053Z,100.00
2023-04-22T17:19:43.025Z,100.00
2023-04-22T17:24:47.373Z,100.00
2023-04-22T17:29:51.306Z,100.00
2023-04-22T17:34:56.722Z,100.00
2023-04-22T17:40:01.008Z,100.00
2023-04-22T17:45:05.577Z,100.00
2023-04-22T17:50:11.764Z,100.00
2023-04-22T17:55:15.750Z,100.00
2023-04-22T18:00:19.962Z,100.00
2023-04-22T18:05:27.107Z,100.00
2023-04-22T18:10:31.737Z,100.00
2023-04-22T18:15:35.747Z,100.00
2023-04-22T18:20:41.517Z,100.00
2023-04-22T18:25:48.109Z,100.00
2023-04-22T18:30:52.112Z,100.00
2023-04-22T18:35:59.819Z,100.00
2023-04-22T18:41:03.825Z,100.00
2023-04-22T18:46:08.381Z,100.00
2023-04-22T18:51:14.772Z,100.00
2023-04-22T18:56:18.759Z,100.00
2023-04-22T19:01:22.850Z,100.00
2023-04-22T19:06:29.012Z,100.00
2023-04-22T19:11:33.021Z,100.00
2023-04-22T19:16:36.948Z,100.00
2023-04-22T19:21:42.333Z,100.00
2023-04-22T19:26:47.162Z,100.00
2023-04-22T19:31:51.253Z,100.00
2023-04-22T19:36:56.561Z,100.00
2023-04-22T19:42:03.365Z,100.00
2023-04-22T19:47:07.590Z,100.00
2023-04-22T19:52:15.699Z,100.00
2023-04-22T19:57:20.508Z,100.00
2023-04-22T20:02:26.132Z,100.00
2023-04-22T20:07:32.822Z,100.00
2023-04-22T20:12:38.265Z,100.00
2023-04-22T20:17:42.801Z,100.00
2023-04-22T20:22:49.778Z,100.00
2023-04-22T20:27:54.319Z,100.00
2023-04-22T20:32:58.601Z,100.00
2023-04-22T20:38:04.843Z,100.00
2023-04-22T20:43:08.781Z,100.00
2023-04-22T20:48:12.849Z,100.00
2023-04-22T20:53:19.263Z,100.00
2023-04-22T20:58:23.226Z,100.00
2023-04-22T21:03:28.578Z,100.00
2023-04-22T21:08:35.093Z,100.00
2023-04-22T21:13:39.570Z,100.00
2023-04-22T21:18:47.140Z,100.00
2023-04-22T21:23:56.805Z,100.00
2023-04-22T21:29:01.720Z,100.00
2023-04-22T21:34:08.787Z,100.00
2023-04-22T21:39:14.394Z,100.00
2023-04-22T21:44:18.419Z,100.00
2023-04-22T21:49:23.217Z,100.00
2023-04-22T21:54:28.546Z,100.00
2023-04-22T21:59:32.519Z,100.00
2023-04-22T22:04:36.562Z,100.00
2023-04-22T22:09:43.937Z,100.00
2023-04-22T22:14:48.016Z,100.00
2023-04-22T22:19:52.061Z,100.00
2023-04-22T22:24:57.636Z,100.00
2023-04-22T22:30:01.842Z,100.00
2023-04-22T22:35:08.167Z,100.00
2023-04-22T22:40:14.574Z,100.00
2023-04-22T22:45:18.727Z,100.00
2023-04-22T22:50:24.808Z,100.00
2023-04-22T22:55:30.276Z,100.00
2023-04-22T23:00:34.265Z,100.00
2023-04-22T23:05:38.286Z,100.00
2023-04-22T23:10:43.619Z,100.00
2023-04-22T23:15:47.500Z,100.00
2023-04-22T23:20:52.244Z,100.00
2023-04-22T23:26:00.831Z,100.00
2023-04-22T23:31:07.937Z,100.00
2023-04-22T23:36:14.393Z,100.00
2023-04-22T23:41:19.837Z,100.00
2023-04-22T23:46:23.824Z,100.00
2023-04-22T23:51:29.794Z,100.00
2023-04-22T23:56:36.083Z,100.00
